createdAt,value
2023-01-23T00:01:29.438Z,9.57
2023-01-23T00:03:57.479Z,10.75
2023-01-23T00:06:25.324Z,11.13
2023-01-23T00:08:53.675Z,9.75
2023-01-23T00:11:23.926Z,9.55
2023-01-23T00:13:51.772Z,10.77
2023-01-23T00:16:21.571Z,11.23
2023-01-23T00:18:49.450Z,8.73
2023-01-23T00:21:19.320Z,12.18
2023-01-23T00:23:48.623Z,9.98
2023-01-23T00:26:18.000Z,8.35
2023-01-23T00:28:45.617Z,8.77
2023-01-23T00:31:15.571Z,9.68
2023-01-23T00:33:43.777Z,10.05
2023-01-23T00:36:12.218Z,9.27
2023-01-23T00:38:39.358Z,9.18
2023-01-23T00:41:06.302Z,8.55
2023-01-23T00:43:33.709Z,8.40
2023-01-23T00:46:00.596Z,11.48
2023-01-23T00:48:27.581Z,9.23
2023-01-23T00:50:54.538Z,9.27
2023-01-23T00:53:22.008Z,9.30
2023-01-23T00:55:49.248Z,9.13
2023-01-23T00:58:16.249Z,7.85
2023-01-23T01:00:43.048Z,10.65
2023-01-23T01:03:09.957Z,9.13
2023-01-23T01:05:37.122Z,9.55
2023-01-23T01:08:04.603Z,8.80
2023-01-23T01:10:32.992Z,8.70
2023-01-23T01:13:01.951Z,9.45
2023-01-23T01:15:29.466Z,7.95
2023-01-23T01:17:56.839Z,7.95
2023-01-23T01:20:25.980Z,8.85
2023-01-23T01:22:53.882Z,8.60
2023-01-23T01:25:20.915Z,8.75
2023-01-23T01:27:47.872Z,7.75
2023-01-23T01:30:16.239Z,9.45
2023-01-23T01:32:44.315Z,9.13
2023-01-23T01:35:11.614Z,12.63
2023-01-23T01:37:40.004Z,9.18
2023-01-23T01:40:09.929Z,8.45
2023-01-23T01:42:52.412Z,7.45
2023-01-23T01:45:56.815Z,6.40
2023-01-23T01:48:29.243Z,12.10
2023-01-23T01:53:25.834Z,11.20
2023-01-23T01:55:53.437Z,12.00
2023-01-23T01:58:20.551Z,10.38
2023-01-23T02:00:47.441Z,8.23
2023-01-23T02:03:15.710Z,10.32
2023-01-23T02:05:49.159Z,8.80
2023-01-23T02:08:23.485Z,8.55
2023-01-23T02:10:51.951Z,8.93
2023-01-23T02:13:39.561Z,7.28
2023-01-23T02:16:09.590Z,8.13
2023-01-23T02:18:39.385Z,8.80
2023-01-23T02:21:08.324Z,7.47
2023-01-23T02:23:38.257Z,7.50
2023-01-23T02:26:09.520Z,6.60
2023-01-23T02:28:42.157Z,5.53
2023-01-23T02:31:09.589Z,7.93
2023-01-23T02:33:36.332Z,5.75
2023-01-23T02:36:05.563Z,7.03
2023-01-23T02:39:01.437Z,7.22
2023-01-23T02:41:31.098Z,6.50
2023-01-23T02:44:02.209Z,8.27
2023-01-23T02:46:29.014Z,7.50
2023-01-23T02:48:56.812Z,6.68
2023-01-23T02:51:24.375Z,9.90
2023-01-23T02:53:51.623Z,8.27
2023-01-23T02:56:18.529Z,8.73
2023-01-23T02:59:04.495Z,8.52
2023-01-23T03:01:33.684Z,6.47
2023-01-23T03:04:04.259Z,5.88
2023-01-23T03:06:37.535Z,5.80
2023-01-23T03:09:08.009Z,7.07
2023-01-23T03:11:36.448Z,6.63
2023-01-23T03:14:03.747Z,5.65
2023-01-23T03:16:30.690Z,6.25
2023-01-23T03:18:58.959Z,6.35
2023-01-23T03:21:25.748Z,7.10
2023-01-23T03:23:52.554Z,7.20
2023-01-23T03:26:19.625Z,8.75
2023-01-23T03:29:04.950Z,6.93
2023-01-23T03:31:35.112Z,6.07
2023-01-23T03:34:02.026Z,5.55
2023-01-23T03:36:28.830Z,6.70
2023-01-23T03:39:14.024Z,5.75
2023-01-23T03:41:42.041Z,7.30
2023-01-23T03:44:09.327Z,6.68
2023-01-23T03:46:36.306Z,7.60
2023-01-23T03:49:03.528Z,6.40
2023-01-23T03:51:30.334Z,5.20
2023-01-23T03:53:57.127Z,6.50
2023-01-23T03:56:23.921Z,6.72
2023-01-23T03:58:50.757Z,7.78
2023-01-23T04:01:17.557Z,6.90
2023-01-23T04:03:44.435Z,7.15
2023-01-23T04:06:11.588Z,8.07
2023-01-23T04:08:38.439Z,6.63
2023-01-23T04:11:07.489Z,5.72
2023-01-23T04:13:34.717Z,7.07
2023-01-23T04:16:02.509Z,6.50
2023-01-23T04:18:29.762Z,5.95
2023-01-23T04:20:57.462Z,9.93
2023-01-23T04:23:25.090Z,7.75
2023-01-23T04:25:53.063Z,8.57
2023-01-23T04:28:20.079Z,4.97
2023-01-23T04:30:47.230Z,5.47
2023-01-23T04:33:14.097Z,4.00
2023-01-23T04:35:41.165Z,3.00
2023-01-23T04:38:08.029Z,2.03
2023-01-23T04:40:34.779Z,1.83
2023-01-23T04:43:01.662Z,3.70
2023-01-23T04:45:28.523Z,1.38
2023-01-23T04:47:55.502Z,3.00
2023-01-23T04:50:23.291Z,1.48
2023-01-23T04:52:50.612Z,4.13
2023-01-23T04:55:17.448Z,1.35
2023-01-23T04:57:44.232Z,1.42
2023-01-23T05:00:11.764Z,6.15
2023-01-23T05:02:38.620Z,1.33
2023-01-23T05:05:06.606Z,1.30
2023-01-23T05:07:33.402Z,1.50
2023-01-23T05:10:00.363Z,1.95
2023-01-23T05:12:27.226Z,1.23
2023-01-23T05:14:54.028Z,2.05
2023-01-23T05:17:20.881Z,2.83
2023-01-23T05:19:47.848Z,2.95
2023-01-23T05:22:14.610Z,1.83
2023-01-23T05:24:41.451Z,1.58
2023-01-23T05:27:08.220Z,2.20
2023-01-23T05:29:35.017Z,4.50
2023-01-23T05:32:01.908Z,2.10
2023-01-23T05:34:28.871Z,1.73
2023-01-23T05:36:56.037Z,2.70
2023-01-23T05:39:23.259Z,2.15
2023-01-23T05:41:50.127Z,2.08
2023-01-23T05:44:17.043Z,2.17
2023-01-23T05:46:44.087Z,2.78
2023-01-23T05:49:10.967Z,2.78
2023-01-23T05:51:38.162Z,2.13
2023-01-23T05:54:04.968Z,3.08
2023-01-23T05:56:31.944Z,4.00
2023-01-23T05:58:58.898Z,4.00
2023-01-23T06:01:25.755Z,2.97
2023-01-23T06:03:52.955Z,2.83
2023-01-23T06:06:19.886Z,3.10
2023-01-23T06:08:46.701Z,2.70
2023-01-23T06:11:13.532Z,2.50
2023-01-23T06:13:40.387Z,2.03
2023-01-23T06:16:10.587Z,1.88
2023-01-23T06:18:37.617Z,1.80
2023-01-23T06:21:05.462Z,2.00
2023-01-23T06:23:32.479Z,5.28
2023-01-23T06:26:01.109Z,2.47
2023-01-23T06:28:28.192Z,4.45
2023-01-23T06:30:56.026Z,4.07
2023-01-23T06:33:23.238Z,5.80
2023-01-23T06:35:53.534Z,7.93
2023-01-23T06:38:20.679Z,5.78
2023-01-23T06:40:47.965Z,6.28
2023-01-23T06:43:15.278Z,3.90
2023-01-23T06:45:45.634Z,3.47
2023-01-23T06:48:12.818Z,3.50
2023-01-23T06:50:40.629Z,2.78
2023-01-23T06:53:07.737Z,4.28
2023-01-23T06:55:34.927Z,6.68
2023-01-23T06:58:01.861Z,4.30
2023-01-23T07:00:28.779Z,6.57
2023-01-23T07:02:59.502Z,5.75
2023-01-23T07:05:27.145Z,4.40
2023-01-23T07:07:56.202Z,4.00
2023-01-23T07:10:23.857Z,3.80
2023-01-23T07:12:51.752Z,6.63
2023-01-23T07:15:19.559Z,8.27
2023-01-23T07:17:46.539Z,8.15
2023-01-23T07:20:14.293Z,7.30
2023-01-23T07:22:42.460Z,11.05
2023-01-23T07:25:09.617Z,11.48
2023-01-23T07:27:39.326Z,12.40
2023-01-23T07:30:19.996Z,11.75
2023-01-23T07:32:47.346Z,11.45
2023-01-23T07:35:17.205Z,12.18
2023-01-23T07:37:47.262Z,13.90
2023-01-23T07:40:15.111Z,15.35
2023-01-23T07:42:42.160Z,18.65
2023-01-23T07:45:10.294Z,14.70
2023-01-23T07:47:39.627Z,11.63
2023-01-23T07:50:13.584Z,12.40
2023-01-23T07:52:40.986Z,13.82
2023-01-23T07:55:08.147Z,14.88
2023-01-23T07:57:35.167Z,10.70
2023-01-23T08:00:02.102Z,9.13
2023-01-23T08:02:28.923Z,15.15
2023-01-23T08:04:56.913Z,9.93
2023-01-23T08:07:24.089Z,8.57
2023-01-23T08:09:50.995Z,7.82
2023-01-23T08:12:18.115Z,9.80
2023-01-23T08:14:48.943Z,8.35
2023-01-23T08:17:17.775Z,11.02
2023-01-23T08:19:53.544Z,10.85
2023-01-23T08:25:06.786Z,9.60
2023-01-23T08:27:34.013Z,9.10
2023-01-23T08:30:04.753Z,10.10
2023-01-23T08:32:33.119Z,8.52
2023-01-23T08:35:04.950Z,10.02
2023-01-23T08:37:35.093Z,10.30
2023-01-23T08:40:02.269Z,7.80
2023-01-23T08:42:29.426Z,8.98
2023-01-23T08:44:56.496Z,9.15
2023-01-23T08:47:24.196Z,9.00
2023-01-23T08:49:52.756Z,11.60
2023-01-23T08:52:19.799Z,12.88
2023-01-23T08:54:46.782Z,18.20
2023-01-23T08:57:14.062Z,20.52
2023-01-23T08:59:44.753Z,30.60
2023-01-23T09:02:18.128Z,11.27
2023-01-23T09:04:45.118Z,18.45
2023-01-23T09:07:12.051Z,16.75
2023-01-23T09:09:39.386Z,9.15
2023-01-23T09:12:06.381Z,10.35
2023-01-23T09:14:35.799Z,9.00
2023-01-23T09:17:02.683Z,13.80
2023-01-23T09:19:32.590Z,8.75
2023-01-23T09:21:59.483Z,10.07
2023-01-23T09:24:26.454Z,9.23
2023-01-23T09:26:53.554Z,10.07
2023-01-23T09:29:23.355Z,20.10
2023-01-23T09:31:50.532Z,15.88
2023-01-23T09:34:18.907Z,14.30
2023-01-23T09:36:45.687Z,13.57
2023-01-23T09:39:12.682Z,12.50
2023-01-23T09:41:43.728Z,17.90
2023-01-23T09:44:16.724Z,18.25
2023-01-23T09:47:03.241Z,21.85
2023-01-23T09:49:41.306Z,29.17
2023-01-23T09:52:24.209Z,23.20
2023-01-23T09:55:24.346Z,15.75
2023-01-23T09:57:56.619Z,17.40
2023-01-23T10:00:34.368Z,14.75
2023-01-23T10:03:12.904Z,14.48
2023-01-23T10:06:01.338Z,17.15
2023-01-23T10:09:05.455Z,13.10
2023-01-23T10:11:53.118Z,12.23
2023-01-23T10:14:55.987Z,11.18
2023-01-23T10:20:13.636Z,18.17
2023-01-23T10:22:58.253Z,19.00
2023-01-23T10:25:37.433Z,16.27
2023-01-23T10:28:32.483Z,16.98
2023-01-23T10:31:03.583Z,16.02
2023-01-23T10:34:05.085Z,16.50
2023-01-23T10:36:54.110Z,12.70
2023-01-23T10:39:33.030Z,14.88
2023-01-23T10:42:03.145Z,13.48
2023-01-23T10:44:32.454Z,13.57
2023-01-23T10:47:04.831Z,27.55
2023-01-23T10:52:39.163Z,17.77
2023-01-23T10:55:26.453Z,17.80
2023-01-23T10:57:56.389Z,16.02
2023-01-23T11:00:36.264Z,14.95
2023-01-23T11:03:22.163Z,11.95
2023-01-23T11:06:16.508Z,11.57
2023-01-23T11:08:55.586Z,11.68
2023-01-23T11:11:32.931Z,11.50
2023-01-23T11:14:15.964Z,12.75
2023-01-23T11:16:45.041Z,16.42
2023-01-23T11:19:22.559Z,12.68
2023-01-23T11:21:55.251Z,14.45
2023-01-23T11:24:38.698Z,12.48
2023-01-23T11:27:20.228Z,15.07
2023-01-23T11:30:46.690Z,14.95
2023-01-23T11:33:30.969Z,15.77
2023-01-23T11:36:19.490Z,17.48
2023-01-23T11:39:13.873Z,17.90
2023-01-23T11:41:42.823Z,11.90
2023-01-23T11:44:23.024Z,10.02
2023-01-23T11:47:14.944Z,11.63
2023-01-23T11:50:11.048Z,11.55
2023-01-23T11:52:57.964Z,11.50
2023-01-23T11:55:40.649Z,13.48
2023-01-23T11:58:30.846Z,13.50
2023-01-23T12:01:25.661Z,9.57
2023-01-23T12:03:59.479Z,3.78
2023-01-23T12:06:59.949Z,1.30
2023-01-23T12:09:54.337Z,2.53
2023-01-23T12:12:50.143Z,1.30
2023-01-23T12:15:38.592Z,1.00
2023-01-23T12:18:36.233Z,0.40
2023-01-23T12:21:12.888Z,0.47
2023-01-23T12:23:48.831Z,0.75
2023-01-23T12:26:24.703Z,0.43
2023-01-23T12:29:10.311Z,0.13
2023-01-23T12:31:37.545Z,6.28
2023-01-23T12:34:25.045Z,1.73
2023-01-23T12:40:04.930Z,0.40
2023-01-23T12:42:49.186Z,0.28
2023-01-23T12:45:32.049Z,0.20
2023-01-23T12:48:14.713Z,0.22
2023-01-23T12:50:45.093Z,0.22
2023-01-23T12:53:20.708Z,0.10
2023-01-23T12:59:24.277Z,0.20
2023-01-23T13:02:10.522Z,0.32
2023-01-23T13:05:05.113Z,0.75
2023-01-23T13:08:12.268Z,0.93
2023-01-23T13:11:22.673Z,0.10
2023-01-23T13:13:49.924Z,0.20
2023-01-23T13:16:18.831Z,0.50
2023-01-23T13:19:13.307Z,0.20
2023-01-23T13:21:59.351Z,0.43
2023-01-23T13:25:04.526Z,0.20
2023-01-23T13:27:55.844Z,0.10
2023-01-23T13:30:23.640Z,0.35
2023-01-23T13:32:54.899Z,0.10
2023-01-23T13:35:40.225Z,0.40
2023-01-23T13:38:22.475Z,0.43
2023-01-23T13:41:14.481Z,0.20
2023-01-23T13:43:50.606Z,0.10
2023-01-23T13:46:31.884Z,0.40
2023-01-23T14:21:55.462Z,0.22
2023-01-23T14:27:21.638Z,0.20
2023-01-23T14:30:15.181Z,0.13
2023-01-23T14:32:45.605Z,0.15
2023-01-23T14:35:26.153Z,0.35
2023-01-23T14:37:55.657Z,0.10
2023-01-23T14:40:28.352Z,1.08
2023-01-23T14:43:03.492Z,0.10
2023-01-23T14:45:33.882Z,0.38
2023-01-23T14:48:06.662Z,0.30
2023-01-23T14:50:34.425Z,0.22
2023-01-23T14:53:20.742Z,0.20
2023-01-23T14:55:50.833Z,0.10
2023-01-23T14:58:25.020Z,0.52
2023-01-23T15:00:54.089Z,0.13
2023-01-23T15:03:44.555Z,0.40
2023-01-23T15:06:22.232Z,7.13
2023-01-23T15:08:52.467Z,1.13
2023-01-23T15:11:33.904Z,0.20
2023-01-23T15:14:12.916Z,2.08
2023-01-23T15:16:42.338Z,0.43
2023-01-23T15:19:24.132Z,0.25
2023-01-23T15:22:18.272Z,0.10
2023-01-23T15:24:45.857Z,0.30
2023-01-23T15:27:32.813Z,0.47
2023-01-23T15:30:30.463Z,6.60
2023-01-23T15:33:00.147Z,0.30
2023-01-23T15:35:27.159Z,0.28
2023-01-23T15:38:03.164Z,0.40
2023-01-23T15:40:33.369Z,0.10
2023-01-23T15:43:11.781Z,0.30
2023-01-23T15:45:38.901Z,1.50
2023-01-23T15:48:06.295Z,0.60
2023-01-23T15:50:33.315Z,0.63
2023-01-23T15:53:04.608Z,0.20
2023-01-23T15:55:35.314Z,0.53
2023-01-23T15:58:03.090Z,0.40
2023-01-23T16:00:30.801Z,0.40
2023-01-23T16:02:59.440Z,0.65
2023-01-23T16:05:29.228Z,0.68
2023-01-23T16:08:01.204Z,0.30
2023-01-23T16:10:35.296Z,0.17
2023-01-23T16:13:03.561Z,1.13
2023-01-23T16:15:35.970Z,0.80
2023-01-23T16:18:07.270Z,0.20
2023-01-23T16:20:37.046Z,0.13
2023-01-23T16:23:22.170Z,1.08
2023-01-23T16:25:49.652Z,0.30
2023-01-23T16:28:19.989Z,1.52
2023-01-23T16:30:48.349Z,0.25
2023-01-23T16:33:16.312Z,0.13
2023-01-23T16:35:44.064Z,0.47
2023-01-23T16:38:31.594Z,1.00
2023-01-23T16:41:00.347Z,0.30
2023-01-23T16:43:27.928Z,0.30
2023-01-23T16:45:56.743Z,1.98
2023-01-23T16:48:27.647Z,0.38
2023-01-23T16:51:00.891Z,1.73
2023-01-23T16:53:34.171Z,0.75
2023-01-23T16:56:02.219Z,3.13
2023-01-23T16:58:39.994Z,0.32
2023-01-23T17:01:20.695Z,1.13
2023-01-23T17:03:57.235Z,0.30
2023-01-23T17:06:24.382Z,0.38
2023-01-23T17:08:53.536Z,0.35
2023-01-23T17:11:24.935Z,0.47
2023-01-23T17:14:14.860Z,1.00
2023-01-23T17:16:43.664Z,0.28
2023-01-23T17:19:39.185Z,0.52
2023-01-23T17:22:08.775Z,2.70
2023-01-23T17:24:35.687Z,0.20
2023-01-23T17:27:02.526Z,0.68
2023-01-23T17:29:29.413Z,0.25
2023-01-23T17:31:56.410Z,0.57
2023-01-23T17:34:26.655Z,0.82
2023-01-23T17:36:59.174Z,0.13
2023-01-23T17:39:45.124Z,0.95
2023-01-23T17:42:15.721Z,0.73
2023-01-23T17:44:45.385Z,0.75
2023-01-23T17:47:12.826Z,2.08
2023-01-23T17:49:40.419Z,1.17
2023-01-23T17:52:11.307Z,1.35
2023-01-23T17:54:38.546Z,0.90
2023-01-23T17:57:05.460Z,1.20
2023-01-23T17:59:33.005Z,2.22
2023-01-23T18:02:00.293Z,2.25
2023-01-23T18:04:28.142Z,1.30
2023-01-23T18:06:55.547Z,2.40
2023-01-23T18:09:22.465Z,0.98
2023-01-23T18:11:53.032Z,5.82
2023-01-23T18:14:39.568Z,2.25
2023-01-23T18:17:26.934Z,0.88
2023-01-23T18:19:54.144Z,2.70
2023-01-23T18:22:22.701Z,1.15
2023-01-23T18:24:49.952Z,0.45
2023-01-23T18:27:25.901Z,1.38
2023-01-23T18:30:01.757Z,1.23
2023-01-23T18:32:59.856Z,1.08
2023-01-23T18:35:54.167Z,0.45
2023-01-23T18:38:36.326Z,1.08
2023-01-23T18:41:15.061Z,1.15
2023-01-23T18:43:48.336Z,1.80
2023-01-23T18:46:17.852Z,1.75
2023-01-23T18:48:46.829Z,2.60
2023-01-23T18:51:37.916Z,0.77
2023-01-23T18:54:25.974Z,0.85
2023-01-23T18:57:10.527Z,1.13
2023-01-23T18:59:45.406Z,2.80
2023-01-23T19:02:45.121Z,0.60
2023-01-23T19:05:13.921Z,0.50
2023-01-23T19:07:41.469Z,1.25
2023-01-23T19:10:15.028Z,0.47
2023-01-23T19:12:45.511Z,1.02
2023-01-23T19:15:33.691Z,0.30
2023-01-23T19:18:40.217Z,1.00
2023-01-23T19:21:10.293Z,0.57
2023-01-23T19:23:57.299Z,1.20
2023-01-23T19:26:29.871Z,1.15
2023-01-23T19:28:59.893Z,0.60
2023-01-23T19:34:14.825Z,0.30
2023-01-23T19:36:41.698Z,1.13
2023-01-23T19:39:08.532Z,0.47
2023-01-23T19:41:35.506Z,0.68
2023-01-23T19:44:05.459Z,3.90
2023-01-23T19:46:33.796Z,0.60
2023-01-23T19:49:02.914Z,1.00
2023-01-23T19:51:31.328Z,3.10
2023-01-23T19:53:58.341Z,0.80
2023-01-23T19:56:26.327Z,1.95
2023-01-23T19:58:54.074Z,0.80
2023-01-23T20:01:39.233Z,0.93
2023-01-23T20:04:08.267Z,0.35
2023-01-23T20:06:39.385Z,1.10
2023-01-23T20:09:07.364Z,0.55
2023-01-23T20:11:35.947Z,1.35
2023-01-23T20:14:03.546Z,5.00
2023-01-23T20:16:30.560Z,3.92
2023-01-23T20:18:59.223Z,1.80
2023-01-23T20:21:26.538Z,0.73
2023-01-23T20:23:53.602Z,3.80
2023-01-23T20:26:21.845Z,1.00
2023-01-23T20:28:50.537Z,1.70
2023-01-23T20:31:17.674Z,1.30
2023-01-23T20:33:46.919Z,0.45
2023-01-23T20:36:13.941Z,2.88
2023-01-23T20:38:41.076Z,1.60
2023-01-23T20:41:11.579Z,1.55
2023-01-23T20:43:48.168Z,0.60
2023-01-23T20:46:16.578Z,3.92
2023-01-23T20:48:46.171Z,1.30
2023-01-23T20:51:15.200Z,1.60
2023-01-23T20:53:42.920Z,2.47
2023-01-23T20:56:16.491Z,0.47
2023-01-23T20:59:05.193Z,1.52
2023-01-23T21:01:55.213Z,1.40
2023-01-23T21:04:24.124Z,2.22
2023-01-23T21:06:50.970Z,0.50
2023-01-23T21:09:18.056Z,2.13
2023-01-23T21:11:45.769Z,0.55
2023-01-23T21:14:14.895Z,0.90
2023-01-23T21:16:42.616Z,0.52
2023-01-23T21:19:09.891Z,0.63
2023-01-23T21:21:38.284Z,2.10
2023-01-23T21:24:05.464Z,3.67
2023-01-23T21:26:32.339Z,3.13
2023-01-23T21:28:59.272Z,1.75
2023-01-23T21:31:29.675Z,0.60
2023-01-23T21:34:00.606Z,1.17
2023-01-23T21:36:28.408Z,1.63
2023-01-23T21:38:56.065Z,33.38
2023-01-23T21:41:23.648Z,4.70
2023-01-23T21:43:50.831Z,2.83
2023-01-23T21:46:29.442Z,4.22
2023-01-23T21:48:58.086Z,1.50
2023-01-23T21:51:28.136Z,3.08
2023-01-23T21:53:55.247Z,0.98
2023-01-23T21:56:26.021Z,1.58
2023-01-23T21:58:54.611Z,1.52
2023-01-23T22:01:35.824Z,4.22
2023-01-23T22:04:06.235Z,1.77
2023-01-23T22:06:37.123Z,1.67
2023-01-23T22:09:04.974Z,2.70
2023-01-23T22:11:32.114Z,4.80
2023-01-23T22:13:59.429Z,1.83
2023-01-23T22:16:46.483Z,1.50
2023-01-23T22:19:25.020Z,0.70
2023-01-23T22:21:59.671Z,0.88
2023-01-23T22:24:26.607Z,1.65
2023-01-23T22:26:53.541Z,1.05
2023-01-23T22:29:22.927Z,5.80
2023-01-23T22:31:52.063Z,1.35
2023-01-23T22:34:19.069Z,1.88
2023-01-23T22:36:45.864Z,1.98
2023-01-23T22:39:16.234Z,0.50
2023-01-23T22:41:47.539Z,1.98
2023-01-23T22:44:14.485Z,1.63
2023-01-23T22:46:41.603Z,1.48
2023-01-23T22:49:10.600Z,0.73
2023-01-23T22:51:37.471Z,1.90
2023-01-23T22:54:06.082Z,0.55
2023-01-23T22:56:33.993Z,0.95
2023-01-23T22:59:03.676Z,0.40
2023-01-23T23:01:30.848Z,0.90
2023-01-23T23:03:58.926Z,0.75
2023-01-23T23:06:26.506Z,1.08
2023-01-23T23:08:53.575Z,2.15
2023-01-23T23:11:23.791Z,1.30
2023-01-23T23:13:51.148Z,1.75
2023-01-23T23:16:26.562Z,0.47
2023-01-23T23:18:55.225Z,0.82
2023-01-23T23:21:24.841Z,1.23
2023-01-23T23:23:55.033Z,1.38
2023-01-23T23:26:21.978Z,2.08
2023-01-23T23:28:48.758Z,1.30
2023-01-23T23:31:15.784Z,1.05
2023-01-23T23:33:42.561Z,1.10
2023-01-23T23:36:09.457Z,1.30
2023-01-23T23:38:36.479Z,1.20
2023-01-23T23:41:06.216Z,2.72
2023-01-23T23:43:33.924Z,1.60
2023-01-23T23:46:03.769Z,1.65
2023-01-23T23:48:31.857Z,0.75
2023-01-23T23:51:08.123Z,1.40
2023-01-23T23:53:36.172Z,1.05
2023-01-23T23:56:04.594Z,1.67
2023-01-23T23:58:32.254Z,1.95
